sensor_id;sensor_type;location;lat;lon;timestamp;pressure;altitude;pressure_sealevel;temperature;humidity
65329;BME280;51941;52.210;5.158;2024-02-23T00:01:00;98572.59;;;5.05;79.37
65329;BME280;51941;52.210;5.158;2024-02-23T00:03:27;98577.91;;;5.12;79.57
65329;BME280;51941;52.210;5.158;2024-02-23T00:05:54;98576.69;;;5.24;79.54
65329;BME280;51941;52.210;5.158;2024-02-23T00:08:20;98586.19;;;5.32;78.89
65329;BME280;51941;52.210;5.158;2024-02-23T00:10:46;98587.31;;;5.35;78.99
65329;BME280;51941;52.210;5.158;2024-02-23T00:13:13;98594.19;;;5.32;78.36
65329;BME280;51941;52.210;5.158;2024-02-23T00:15:41;98596.06;;;5.39;78.12
65329;BME280;51941;52.210;5.158;2024-02-23T00:18:09;98606.72;;;5.43;78.32
65329;BME280;51941;52.210;5.158;2024-02-23T00:20:38;98606.34;;;5.44;78.39
65329;BME280;51941;52.210;5.158;2024-02-23T00:23:04;98608.25;;;5.47;77.96
65329;BME280;51941;52.210;5.158;2024-02-23T00:25:31;98614.34;;;5.44;77.28
65329;BME280;51941;52.210;5.158;2024-02-23T00:27:58;98610.88;;;5.51;78.29
65329;BME280;51941;52.210;5.158;2024-02-23T00:30:24;98622.75;;;5.39;77.38
65329;BME280;51941;52.210;5.158;2024-02-23T00:32:54;98626.16;;;5.43;77.69
65329;BME280;51941;52.210;5.158;2024-02-23T00:35:21;98617.44;;;5.36;77.52
65329;BME280;51941;52.210;5.158;2024-02-23T00:37:47;98619.31;;;5.39;77.85
65329;BME280;51941;52.210;5.158;2024-02-23T00:40:14;98623.16;;;5.38;77.95
65329;BME280;51941;52.210;5.158;2024-02-23T00:42:41;98624.66;;;5.42;77.96
65329;BME280;51941;52.210;5.158;2024-02-23T00:45:08;98631.91;;;5.42;78.20
65329;BME280;51941;52.210;5.158;2024-02-23T00:47:34;98628.88;;;5.40;77.73
65329;BME280;51941;52.210;5.158;2024-02-23T00:50:04;98625.84;;;5.30;77.30
65329;BME280;51941;52.210;5.158;2024-02-23T00:52:31;98646.00;;;5.46;77.74
65329;BME280;51941;52.210;5.158;2024-02-23T00:54:58;98640.69;;;5.39;78.15
65329;BME280;51941;52.210;5.158;2024-02-23T00:57:24;98643.34;;;5.42;77.73
65329;BME280;51941;52.210;5.158;2024-02-23T00:59:55;98655.97;;;5.34;77.17
65329;BME280;51941;52.210;5.158;2024-02-23T01:02:24;98657.81;;;5.45;77.38
65329;BME280;51941;52.210;5.158;2024-02-23T01:04:50;98654.78;;;5.39;77.42
65329;BME280;51941;52.210;5.158;2024-02-23T01:07:23;98661.66;;;5.37;77.28
65329;BME280;51941;52.210;5.158;2024-02-23T01:09:50;98664.31;;;5.40;76.34
65329;BME280;51941;52.210;5.158;2024-02-23T01:12:17;98669.28;;;5.45;77.29
65329;BME280;51941;52.210;5.158;2024-02-23T01:14:43;98675.75;;;5.44;77.48
65329;BME280;51941;52.210;5.158;2024-02-23T01:17:10;98679.13;;;5.56;77.53
65329;BME280;51941;52.210;5.158;2024-02-23T01:19:37;98680.66;;;5.53;77.03
65329;BME280;51941;52.210;5.158;2024-02-23T01:22:03;98685.63;;;5.51;76.92
65329;BME280;51941;52.210;5.158;2024-02-23T01:24:31;98692.13;;;5.50;76.96
65329;BME280;51941;52.210;5.158;2024-02-23T01:26:58;98702.38;;;5.62;77.14
65329;BME280;51941;52.210;5.158;2024-02-23T01:29:25;98705.41;;;5.61;76.70
65329;BME280;51941;52.210;5.158;2024-02-23T01:31:52;98702.75;;;5.61;76.50
65329;BME280;51941;52.210;5.158;2024-02-23T01:34:20;98714.97;;;5.58;76.28
65329;BME280;51941;52.210;5.158;2024-02-23T01:36:46;98714.22;;;5.54;75.63
65329;BME280;51941;52.210;5.158;2024-02-23T01:39:13;98706.25;;;5.43;75.75
65329;BME280;51941;52.210;5.158;2024-02-23T01:41:41;98723.06;;;5.44;76.12
65329;BME280;51941;52.210;5.158;2024-02-23T01:44:09;98726.53;;;5.33;76.36
65329;BME280;51941;52.210;5.158;2024-02-23T01:46:36;98702.88;;;5.32;76.15
65329;BME280;51941;52.210;5.158;2024-02-23T01:49:03;98721.19;;;5.26;75.41
65329;BME280;51941;52.210;5.158;2024-02-23T01:51:31;98721.53;;;5.39;76.27
65329;BME280;51941;52.210;5.158;2024-02-23T01:53:58;98725.41;;;5.24;75.17
65329;BME280;51941;52.210;5.158;2024-02-23T01:56:25;98729.56;;;5.25;75.72
65329;BME280;51941;52.210;5.158;2024-02-23T01:58:54;98721.56;;;5.18;74.62
65329;BME280;51941;52.210;5.158;2024-02-23T02:01:21;98736.44;;;5.22;75.67
65329;BME280;51941;52.210;5.158;2024-02-23T02:03:48;98739.13;;;5.22;75.67
65329;BME280;51941;52.210;5.158;2024-02-23T02:06:15;98742.56;;;5.08;75.72
65329;BME280;51941;52.210;5.158;2024-02-23T02:08:42;98737.63;;;5.10;75.22
65329;BME280;51941;52.210;5.158;2024-02-23T02:11:08;98729.22;;;4.94;75.20
65329;BME280;51941;52.210;5.158;2024-02-23T02:13:35;98740.28;;;4.82;75.53
65329;BME280;51941;52.210;5.158;2024-02-23T02:16:03;98754.00;;;4.80;75.71
65329;BME280;51941;52.210;5.158;2024-02-23T02:18:30;98748.66;;;4.69;76.20
65329;BME280;51941;52.210;5.158;2024-02-23T02:20:57;98742.94;;;4.64;76.85
65329;BME280;51941;52.210;5.158;2024-02-23T02:23:24;98747.16;;;4.75;76.65
65329;BME280;51941;52.210;5.158;2024-02-23T02:25:55;98755.91;;;4.80;76.75
65329;BME280;51941;52.210;5.158;2024-02-23T02:28:22;98766.19;;;4.74;77.09
65329;BME280;51941;52.210;5.158;2024-02-23T02:30:49;98753.63;;;4.71;77.31
65329;BME280;51941;52.210;5.158;2024-02-23T02:33:17;98764.28;;;4.67;77.78
65329;BME280;51941;52.210;5.158;2024-02-23T02:35:44;98761.25;;;4.65;78.15
65329;BME280;51941;52.210;5.158;2024-02-23T02:38:12;98758.19;;;4.67;77.49
65329;BME280;51941;52.210;5.158;2024-02-23T02:40:39;98757.44;;;4.63;77.90
65329;BME280;51941;52.210;5.158;2024-02-23T02:43:06;98765.81;;;4.61;77.39
65329;BME280;51941;52.210;5.158;2024-02-23T02:45:33;98765.06;;;4.57;77.56
65329;BME280;51941;52.210;5.158;2024-02-23T02:48:00;98760.47;;;4.54;78.14
65329;BME280;51941;52.210;5.158;2024-02-23T02:50:28;98770.00;;;4.55;77.55
65329;BME280;51941;52.210;5.158;2024-02-23T02:52:55;98765.06;;;4.57;77.63
65329;BME280;51941;52.210;5.158;2024-02-23T02:55:22;98769.59;;;4.56;78.73
65329;BME280;51941;52.210;5.158;2024-02-23T02:57:49;98774.94;;;4.60;78.47
65329;BME280;51941;52.210;5.158;2024-02-23T03:00:16;98784.09;;;4.63;78.80
65329;BME280;51941;52.210;5.158;2024-02-23T03:02:42;98782.97;;;4.67;78.76
65329;BME280;51941;52.210;5.158;2024-02-23T03:05:09;98778.38;;;4.71;79.02
65329;BME280;51941;52.210;5.158;2024-02-23T03:07:37;98789.44;;;4.73;79.37
65329;BME280;51941;52.210;5.158;2024-02-23T03:10:05;98783.34;;;4.73;79.25
65329;BME280;51941;52.210;5.158;2024-02-23T03:12:32;98792.47;;;4.72;79.34
65329;BME280;51941;52.210;5.158;2024-02-23T03:14:58;98789.03;;;4.68;79.07
65329;BME280;51941;52.210;5.158;2024-02-23T03:17:25;98784.84;;;4.63;79.32
65329;BME280;51941;52.210;5.158;2024-02-23T03:19:52;98787.13;;;4.61;79.20
65329;BME280;51941;52.210;5.158;2024-02-23T03:22:18;98788.28;;;4.60;78.98
65329;BME280;51941;52.210;5.158;2024-02-23T03:24:46;98787.88;;;4.54;79.10
65329;BME280;51941;52.210;5.158;2024-02-23T03:27:13;98792.47;;;4.61;79.16
65329;BME280;51941;52.210;5.158;2024-02-23T03:29:40;98797.00;;;4.46;79.17
65329;BME280;51941;52.210;5.158;2024-02-23T03:32:08;98802.75;;;4.55;79.32
65329;BME280;51941;52.210;5.158;2024-02-23T03:34:35;98806.94;;;4.56;79.26
65329;BME280;51941;52.210;5.158;2024-02-23T03:37:01;98802.00;;;4.55;79.11
65329;BME280;51941;52.210;5.158;2024-02-23T03:39:28;98809.59;;;4.53;79.07
65329;BME280;51941;52.210;5.158;2024-02-23T03:41:56;98808.81;;;4.49;79.14
65329;BME280;51941;52.210;5.158;2024-02-23T03:44:23;98815.28;;;4.41;79.11
65329;BME280;51941;52.210;5.158;2024-02-23T03:46:50;98813.38;;;4.34;79.35
65329;BME280;51941;52.210;5.158;2024-02-23T03:49:16;98808.38;;;4.29;79.05
65329;BME280;51941;52.210;5.158;2024-02-23T03:51:43;98814.13;;;4.27;78.99
65329;BME280;51941;52.210;5.158;2024-02-23T03:54:10;98815.94;;;4.09;79.80
65329;BME280;51941;52.210;5.158;2024-02-23T03:56:40;98820.91;;;4.10;79.67
65329;BME280;51941;52.210;5.158;2024-02-23T03:59:08;98822.44;;;4.15;79.33
65329;BME280;51941;52.210;5.158;2024-02-23T04:01:36;98814.84;;;4.13;79.70
65329;BME280;51941;52.210;5.158;2024-02-23T04:04:03;98825.88;;;4.12;79.64
65329;BME280;51941;52.210;5.158;2024-02-23T04:06:30;98828.13;;;4.06;79.84
65329;BME280;51941;52.210;5.158;2024-02-23T04:08:57;98821.25;;;4.02;79.84
65329;BME280;51941;52.210;5.158;2024-02-23T04:11:24;98822.75;;;3.99;80.01
65329;BME280;51941;52.210;5.158;2024-02-23T04:13:50;98834.19;;;3.96;80.10
65329;BME280;51941;52.210;5.158;2024-02-23T04:16:22;98837.56;;;3.93;80.05
65329;BME280;51941;52.210;5.158;2024-02-23T04:18:49;98840.53;;;3.77;80.52
65329;BME280;51941;52.210;5.158;2024-02-23T04:21:15;98840.19;;;3.82;80.32
65329;BME280;51941;52.210;5.158;2024-02-23T04:23:43;98851.97;;;3.81;80.48
65329;BME280;51941;52.210;5.158;2024-02-23T04:26:10;98846.31;;;3.86;80.25
65329;BME280;51941;52.210;5.158;2024-02-23T04:28:37;98851.16;;;3.73;80.92
65329;BME280;51941;52.210;5.158;2024-02-23T04:31:04;98852.34;;;3.83;80.52
65329;BME280;51941;52.210;5.158;2024-02-23T04:33:32;98857.72;;;3.87;80.80
65329;BME280;51941;52.210;5.158;2024-02-23T04:36:00;98853.13;;;3.87;80.90
65329;BME280;51941;52.210;5.158;2024-02-23T04:38:27;98857.72;;;3.87;80.85
65329;BME280;51941;52.210;5.158;2024-02-23T04:40:53;98861.53;;;3.89;80.60
65329;BME280;51941;52.210;5.158;2024-02-23T04:43:20;98867.59;;;3.83;81.00
65329;BME280;51941;52.210;5.158;2024-02-23T04:45:48;98868.00;;;3.88;80.87
65329;BME280;51941;52.210;5.158;2024-02-23T04:48:15;98867.22;;;3.84;80.87
65329;BME280;51941;52.210;5.158;2024-02-23T04:50:43;98863.44;;;3.89;80.99
65329;BME280;51941;52.210;5.158;2024-02-23T04:53:10;98860.75;;;3.89;81.08
65329;BME280;51941;52.210;5.158;2024-02-23T04:55:36;98848.97;;;3.86;81.14
65329;BME280;51941;52.210;5.158;2024-02-23T04:58:03;98856.97;;;3.86;81.36
65329;BME280;51941;52.210;5.158;2024-02-23T05:00:30;98852.03;;;3.92;81.42
65329;BME280;51941;52.210;5.158;2024-02-23T05:02:59;98856.97;;;3.93;81.28
65329;BME280;51941;52.210;5.158;2024-02-23T05:05:28;98863.50;;;4.03;81.66
65329;BME280;51941;52.210;5.158;2024-02-23T05:07:56;98862.38;;;4.08;81.65
65329;BME280;51941;52.210;5.158;2024-02-23T05:10:23;98853.63;;;4.11;81.48
65329;BME280;51941;52.210;5.158;2024-02-23T05:12:50;98857.09;;;4.19;81.29
65329;BME280;51941;52.210;5.158;2024-02-23T05:15:16;98857.47;;;4.21;81.31
65329;BME280;51941;52.210;5.158;2024-02-23T05:17:43;98853.28;;;4.23;81.39
65329;BME280;51941;52.210;5.158;2024-02-23T05:20:11;98857.13;;;4.29;80.95
65329;BME280;51941;52.210;5.158;2024-02-23T05:22:38;98854.09;;;4.34;81.10
65329;BME280;51941;52.210;5.158;2024-02-23T05:25:07;98854.88;;;4.39;80.85
65329;BME280;51941;52.210;5.158;2024-02-23T05:27:34;98855.28;;;4.48;81.19
65329;BME280;51941;52.210;5.158;2024-02-23T05:30:01;98856.41;;;4.47;80.63
65329;BME280;51941;52.210;5.158;2024-02-23T05:32:27;98854.53;;;4.58;80.72
65329;BME280;51941;52.210;5.158;2024-02-23T05:34:54;98852.25;;;4.60;80.76
65329;BME280;51941;52.210;5.158;2024-02-23T05:37:22;98868.25;;;4.60;80.08
65329;BME280;51941;52.210;5.158;2024-02-23T05:39:49;98857.22;;;4.62;80.50
65329;BME280;51941;52.210;5.158;2024-02-23T05:42:17;98857.22;;;4.58;79.26
65329;BME280;51941;52.210;5.158;2024-02-23T05:44:44;98864.84;;;4.60;79.77
65329;BME280;51941;52.210;5.158;2024-02-23T05:47:10;98868.97;;;4.46;79.14
65329;BME280;51941;52.210;5.158;2024-02-23T05:49:39;98856.81;;;4.52;79.65
65329;BME280;51941;52.210;5.158;2024-02-23T05:52:06;98854.94;;;4.53;79.50
65329;BME280;51941;52.210;5.158;2024-02-23T05:54:32;98860.25;;;4.56;79.89
65329;BME280;51941;52.210;5.158;2024-02-23T05:56:59;98853.75;;;4.47;79.68
65329;BME280;51941;52.210;5.158;2024-02-23T05:59:27;98853.78;;;4.58;79.54
65329;BME280;51941;52.210;5.158;2024-02-23T06:01:54;98853.81;;;4.61;79.39
65329;BME280;51941;52.210;5.158;2024-02-23T06:04:22;98859.88;;;4.62;79.43
65329;BME280;51941;52.210;5.158;2024-02-23T06:06:49;98858.00;;;4.66;79.00
65329;BME280;51941;52.210;5.158;2024-02-23T06:09:15;98856.06;;;4.66;78.98
65329;BME280;51941;52.210;5.158;2024-02-23T06:11:42;98857.22;;;4.65;78.59
65329;BME280;51941;52.210;5.158;2024-02-23T06:14:09;98868.31;;;4.74;79.02
65329;BME280;51941;52.210;5.158;2024-02-23T06:16:38;98862.56;;;4.72;78.84
65329;BME280;51941;52.210;5.158;2024-02-23T06:19:05;98862.56;;;4.72;78.75
65329;BME280;51941;52.210;5.158;2024-02-23T06:21:32;98860.28;;;4.78;78.41
65329;BME280;51941;52.210;5.158;2024-02-23T06:23:59;98882.38;;;4.82;78.40
65329;BME280;51941;52.210;5.158;2024-02-23T06:26:25;98870.59;;;4.83;78.31
65329;BME280;51941;52.210;5.158;2024-02-23T06:28:52;98875.94;;;4.90;78.61
65329;BME280;51941;52.210;5.158;2024-02-23T06:31:19;98880.50;;;4.93;78.22
65329;BME280;51941;52.210;5.158;2024-02-23T06:33:47;98871.34;;;4.87;78.00
65329;BME280;51941;52.210;5.158;2024-02-23T06:36:17;98876.72;;;4.94;77.89
65329;BME280;51941;52.210;5.158;2024-02-23T06:38:43;98882.38;;;4.82;77.46
65329;BME280;51941;52.210;5.158;2024-02-23T06:41:11;98871.72;;;4.86;77.32
65329;BME280;51941;52.210;5.158;2024-02-23T06:43:37;98877.47;;;4.91;77.42
65329;BME280;51941;52.210;5.158;2024-02-23T06:46:06;98877.47;;;4.81;76.94
65329;BME280;51941;52.210;5.158;2024-02-23T06:48:33;98877.47;;;4.81;76.94
65329;BME280;51941;52.210;5.158;2024-02-23T06:51:01;98871.34;;;4.73;77.34
65329;BME280;51941;52.210;5.158;2024-02-23T06:53:28;98875.53;;;4.74;76.77
65329;BME280;51941;52.210;5.158;2024-02-23T06:55:56;98869.44;;;4.73;76.96
65329;BME280;51941;52.210;5.158;2024-02-23T06:58:24;98869.06;;;4.82;76.74
65329;BME280;51941;52.210;5.158;2024-02-23T07:00:51;98883.56;;;4.85;76.75
65329;BME280;51941;52.210;5.158;2024-02-23T07:03:17;98874.41;;;4.79;76.87
65329;BME280;51941;52.210;5.158;2024-02-23T07:05:44;98875.91;;;4.76;76.40
65329;BME280;51941;52.210;5.158;2024-02-23T07:08:14;98872.09;;;4.70;75.93
65329;BME280;51941;52.210;5.158;2024-02-23T07:10:40;98883.13;;;4.68;75.80
65329;BME280;51941;52.210;5.158;2024-02-23T07:13:07;98870.94;;;4.78;75.99
65329;BME280;51941;52.210;5.158;2024-02-23T07:15:34;98873.25;;;4.83;75.82
65329;BME280;51941;52.210;5.158;2024-02-23T07:18:01;98869.13;;;4.97;75.98
65329;BME280;51941;52.210;5.158;2024-02-23T07:20:28;98871.41;;;5.09;75.53
65329;BME280;51941;52.210;5.158;2024-02-23T07:22:54;98889.72;;;5.10;75.56
65329;BME280;51941;52.210;5.158;2024-02-23T07:25:23;98876.75;;;5.05;75.21
65329;BME280;51941;52.210;5.158;2024-02-23T07:27:50;98882.09;;;5.09;75.23
65329;BME280;51941;52.210;5.158;2024-02-23T07:30:17;98877.13;;;5.11;75.27
65329;BME280;51941;52.210;5.158;2024-02-23T07:32:43;98881.31;;;5.19;74.77
65329;BME280;51941;52.210;5.158;2024-02-23T07:35:11;98871.78;;;5.14;74.55
65329;BME280;51941;52.210;5.158;2024-02-23T07:37:38;98867.19;;;5.08;74.26
65329;BME280;51941;52.210;5.158;2024-02-23T07:40:06;98864.56;;;5.22;74.32
65329;BME280;51941;52.210;5.158;2024-02-23T07:42:34;98866.44;;;5.04;73.67
65329;BME280;51941;52.210;5.158;2024-02-23T07:45:02;98865.69;;;5.21;74.05
65329;BME280;51941;52.210;5.158;2024-02-23T07:47:30;98864.53;;;5.29;73.44
65329;BME280;51941;52.210;5.158;2024-02-23T07:49:57;98859.97;;;5.37;73.16
65329;BME280;51941;52.210;5.158;2024-02-23T07:52:24;98858.84;;;5.20;73.16
65329;BME280;51941;52.210;5.158;2024-02-23T07:54:51;98859.59;;;5.28;73.28
65329;BME280;51941;52.210;5.158;2024-02-23T07:57:18;98856.53;;;5.33;73.47
65329;BME280;51941;52.210;5.158;2024-02-23T07:59:50;98844.31;;;5.39;73.27
65329;BME280;51941;52.210;5.158;2024-02-23T08:02:17;98839.00;;;5.36;73.27
65329;BME280;51941;52.210;5.158;2024-02-23T08:04:44;98844.34;;;5.25;73.88
65329;BME280;51941;52.210;5.158;2024-02-23T08:07:13;98841.28;;;5.30;73.75
65329;BME280;51941;52.210;5.158;2024-02-23T08:09:39;98840.13;;;5.38;73.54
65329;BME280;51941;52.210;5.158;2024-02-23T08:12:07;98836.31;;;5.39;73.44
65329;BME280;51941;52.210;5.158;2024-02-23T08:14:34;98834.41;;;5.29;73.70
65329;BME280;51941;52.210;5.158;2024-02-23T08:17:02;98836.31;;;5.39;73.80
65329;BME280;51941;52.210;5.158;2024-02-23T08:19:28;98837.09;;;5.25;73.79
65329;BME280;51941;52.210;5.158;2024-02-23T08:21:55;98831.00;;;5.36;73.77
65329;BME280;51941;52.210;5.158;2024-02-23T08:24:22;98835.19;;;5.44;73.87
65329;BME280;51941;52.210;5.158;2024-02-23T08:26:49;98833.63;;;5.43;74.16
65329;BME280;51941;52.210;5.158;2024-02-23T08:29:19;98839.38;;;5.20;75.22
65329;BME280;51941;52.210;5.158;2024-02-23T08:31:45;98837.13;;;5.22;75.67
65329;BME280;51941;52.210;5.158;2024-02-23T08:34:13;98834.41;;;5.25;75.27
65329;BME280;51941;52.210;5.158;2024-02-23T08:36:42;98831.38;;;5.23;75.64
65329;BME280;51941;52.210;5.158;2024-02-23T08:39:09;98827.56;;;5.13;76.07
65329;BME280;51941;52.210;5.158;2024-02-23T08:41:36;98824.53;;;5.04;76.88
65329;BME280;51941;52.210;5.158;2024-02-23T08:44:03;98824.16;;;5.02;76.25
65329;BME280;51941;52.210;5.158;2024-02-23T08:46:30;98835.19;;;5.15;76.00
65329;BME280;51941;52.210;5.158;2024-02-23T08:48:56;98832.91;;;4.95;77.33
65329;BME280;51941;52.210;5.158;2024-02-23T08:51:24;98840.16;;;5.17;76.54
65329;BME280;51941;52.210;5.158;2024-02-23T08:53:51;98848.94;;;5.28;76.61
65329;BME280;51941;52.210;5.158;2024-02-23T08:56:18;98832.50;;;5.29;76.39
65329;BME280;51941;52.210;5.158;2024-02-23T08:58:45;98835.16;;;5.29;76.74
65329;BME280;51941;52.210;5.158;2024-02-23T09:01:11;98834.41;;;5.29;76.88
65329;BME280;51941;52.210;5.158;2024-02-23T09:03:38;98819.94;;;5.23;77.62
65329;BME280;51941;52.210;5.158;2024-02-23T09:06:05;98829.84;;;5.40;76.75
65329;BME280;51941;52.210;5.158;2024-02-23T09:08:33;98833.25;;;5.41;77.14
65329;BME280;51941;52.210;5.158;2024-02-23T09:11:00;98835.19;;;5.26;77.90
65329;BME280;51941;52.210;5.158;2024-02-23T09:13:27;98831.34;;;5.45;76.94
65329;BME280;51941;52.210;5.158;2024-02-23T09:15:55;98847.00;;;5.50;76.89
65329;BME280;51941;52.210;5.158;2024-02-23T09:18:22;98848.50;;;5.54;76.78
65329;BME280;51941;52.210;5.158;2024-02-23T09:20:49;98845.44;;;5.56;76.84
65329;BME280;51941;52.210;5.158;2024-02-23T09:23:15;98844.34;;;5.36;77.75
65329;BME280;51941;52.210;5.158;2024-02-23T09:25:44;98844.34;;;5.36;77.57
65329;BME280;51941;52.210;5.158;2024-02-23T09:28:11;98849.28;;;5.37;77.84
65329;BME280;51941;52.210;5.158;2024-02-23T09:30:37;98849.31;;;5.26;78.56
65329;BME280;51941;52.210;5.158;2024-02-23T09:33:05;98841.69;;;5.32;78.26
65329;BME280;51941;52.210;5.158;2024-02-23T09:35:31;98855.78;;;5.36;77.97
65329;BME280;51941;52.210;5.158;2024-02-23T09:37:58;98855.00;;;5.50;77.92
65329;BME280;51941;52.210;5.158;2024-02-23T09:40:25;98853.09;;;5.54;77.86
65329;BME280;51941;52.210;5.158;2024-02-23T09:42:56;98840.44;;;5.72;77.40
65329;BME280;51941;52.210;5.158;2024-02-23T09:45:24;98851.88;;;5.80;76.98
65329;BME280;51941;52.210;5.158;2024-02-23T09:47:52;98843.13;;;5.76;76.67
65329;BME280;51941;52.210;5.158;2024-02-23T09:50:20;98851.06;;;5.98;76.56
65329;BME280;51941;52.210;5.158;2024-02-23T09:52:49;98850.63;;;6.13;76.10
65329;BME280;51941;52.210;5.158;2024-02-23T09:55:16;98850.53;;;6.35;75.92
65329;BME280;51941;52.210;5.158;2024-02-23T09:57:44;98863.03;;;6.56;75.15
65329;BME280;51941;52.210;5.158;2024-02-23T10:00:16;98862.19;;;6.70;75.02
65329;BME280;51941;52.210;5.158;2024-02-23T10:02:43;98869.16;;;6.53;74.32
65329;BME280;51941;52.210;5.158;2024-02-23T10:05:13;98864.59;;;6.53;74.56
65329;BME280;51941;52.210;5.158;2024-02-23T10:07:40;98869.25;;;6.28;75.46
65329;BME280;51941;52.210;5.158;2024-02-23T10:10:08;98872.34;;;6.26;74.96
65329;BME280;51941;52.210;5.158;2024-02-23T10:12:36;98871.91;;;6.39;75.19
65329;BME280;51941;52.210;5.158;2024-02-23T10:15:04;98867.28;;;6.50;74.65
65329;BME280;51941;52.210;5.158;2024-02-23T10:17:32;98868.84;;;6.44;75.06
65329;BME280;51941;52.210;5.158;2024-02-23T10:19:59;98865.81;;;6.38;74.37
65329;BME280;51941;52.210;5.158;2024-02-23T10:22:30;98873.84;;;6.27;74.57
65329;BME280;51941;52.210;5.158;2024-02-23T10:24:57;98873.88;;;6.24;74.77
65329;BME280;51941;52.210;5.158;2024-02-23T10:27:24;98875.41;;;6.25;74.94
65329;BME280;51941;52.210;5.158;2024-02-23T10:29:51;98881.44;;;6.43;74.85
65329;BME280;51941;52.210;5.158;2024-02-23T10:32:19;98889.09;;;6.38;74.85
65329;BME280;51941;52.210;5.158;2024-02-23T10:34:50;98884.06;;;6.50;74.53
65329;BME280;51941;52.210;5.158;2024-02-23T10:37:18;98888.97;;;6.59;74.25
65329;BME280;51941;52.210;5.158;2024-02-23T10:39:46;98894.28;;;6.70;74.21
65329;BME280;51941;52.210;5.158;2024-02-23T10:42:12;98888.97;;;6.66;73.84
65329;BME280;51941;52.210;5.158;2024-02-23T10:44:42;98901.97;;;6.64;73.78
65329;BME280;51941;52.210;5.158;2024-02-23T10:47:09;98906.47;;;6.82;74.27
65329;BME280;51941;52.210;5.158;2024-02-23T10:49:38;98899.56;;;6.84;73.65
65329;BME280;51941;52.210;5.158;2024-02-23T10:52:09;98901.38;;;6.98;74.10
65329;BME280;51941;52.210;5.158;2024-02-23T10:54:38;98896.72;;;7.09;73.33
65329;BME280;51941;52.210;5.158;2024-02-23T10:57:06;98898.69;;;6.98;73.34
65329;BME280;51941;52.210;5.158;2024-02-23T10:59:33;98921.50;;;7.21;73.26
65329;BME280;51941;52.210;5.158;2024-02-23T11:02:00;98916.44;;;7.30;73.19
65329;BME280;51941;52.210;5.158;2024-02-23T11:04:27;98907.19;;;7.42;73.35
65329;BME280;51941;52.210;5.158;2024-02-23T11:06:56;98894.19;;;7.40;73.03
65329;BME280;51941;52.210;5.158;2024-02-23T11:09:25;98910.56;;;7.53;72.25
65329;BME280;51941;52.210;5.158;2024-02-23T11:11:53;98907.75;;;7.67;72.04
65329;BME280;51941;52.210;5.158;2024-02-23T11:14:29;98919.50;;;7.81;72.30
65329;BME280;51941;52.210;5.158;2024-02-23T11:16:57;98913.34;;;7.84;71.70
65329;BME280;51941;52.210;5.158;2024-02-23T11:19:32;98906.94;;;7.74;70.99
65329;BME280;51941;52.210;5.158;2024-02-23T11:21:59;98919.94;;;7.76;70.67
65329;BME280;51941;52.210;5.158;2024-02-23T11:24:31;98917.16;;;7.83;70.35
65329;BME280;51941;52.210;5.158;2024-02-23T11:26:58;98913.75;;;7.82;70.50
65329;BME280;51941;52.210;5.158;2024-02-23T11:29:26;98915.56;;;7.89;70.27
65329;BME280;51941;52.210;5.158;2024-02-23T11:31:54;98932.75;;;7.95;70.35
65329;BME280;51941;52.210;5.158;2024-02-23T11:34:26;98916.59;;;8.02;69.12
65329;BME280;51941;52.210;5.158;2024-02-23T11:36:53;98911.19;;;8.06;69.52
65329;BME280;51941;52.210;5.158;2024-02-23T11:39:22;98927.00;;;8.31;69.45
65329;BME280;51941;52.210;5.158;2024-02-23T11:41:50;98925.13;;;8.28;67.63
65329;BME280;51941;52.210;5.158;2024-02-23T11:44:17;98928.44;;;8.39;68.50
65329;BME280;51941;52.210;5.158;2024-02-23T11:46:44;98937.41;;;8.25;68.19
65329;BME280;51941;52.210;5.158;2024-02-23T11:49:12;98936.56;;;8.32;68.51
65329;BME280;51941;52.210;5.158;2024-02-23T11:51:38;98932.81;;;8.26;68.40
65329;BME280;51941;52.210;5.158;2024-02-23T11:54:06;98943.31;;;8.13;68.67
65329;BME280;51941;52.210;5.158;2024-02-23T11:56:32;98949.66;;;7.88;68.12
65329;BME280;51941;52.210;5.158;2024-02-23T11:59:01;98955.38;;;7.94;68.91
65329;BME280;51941;52.210;5.158;2024-02-23T12:01:29;98948.03;;;7.98;69.35
65329;BME280;51941;52.210;5.158;2024-02-23T12:03:57;98946.13;;;7.99;69.23
65329;BME280;51941;52.210;5.158;2024-02-23T12:06:24;98957.16;;;8.04;69.40
65329;BME280;51941;52.210;5.158;2024-02-23T12:08:54;98949.81;;;8.12;69.43
65329;BME280;51941;52.210;5.158;2024-02-23T12:11:21;98946.13;;;8.37;69.27
65329;BME280;51941;52.210;5.158;2024-02-23T12:13:48;98934.03;;;8.21;67.68
65329;BME280;51941;52.210;5.158;2024-02-23T12:16:17;98952.53;;;8.46;67.72
65329;BME280;51941;52.210;5.158;2024-02-23T12:18:44;98941.44;;;8.44;67.41
65329;BME280;51941;52.210;5.158;2024-02-23T12:21:11;98949.06;;;8.46;67.25
65329;BME280;51941;52.210;5.158;2024-02-23T12:23:42;98946.78;;;8.44;67.77
65329;BME280;51941;52.210;5.158;2024-02-23T12:26:10;98953.66;;;8.45;67.79
65329;BME280;51941;52.210;5.158;2024-02-23T12:28:38;98959.06;;;8.42;67.13
65329;BME280;51941;52.210;5.158;2024-02-23T12:31:06;98974.84;;;8.36;66.99
65329;BME280;51941;52.210;5.158;2024-02-23T12:33:35;98975.56;;;8.40;67.46
65329;BME280;51941;52.210;5.158;2024-02-23T12:36:04;98978.06;;;8.58;67.90
65329;BME280;51941;52.210;5.158;2024-02-23T12:38:34;98960.31;;;8.68;67.44
65329;BME280;51941;52.210;5.158;2024-02-23T12:41:02;98961.16;;;8.92;67.26
65329;BME280;51941;52.210;5.158;2024-02-23T12:43:29;98979.06;;;8.99;66.96
65329;BME280;51941;52.210;5.158;2024-02-23T12:45:57;98959.13;;;9.00;66.75
65329;BME280;51941;52.210;5.158;2024-02-23T12:48:23;98985.31;;;8.92;66.71
65329;BME280;51941;52.210;5.158;2024-02-23T12:50:51;98980.84;;;9.09;66.12
65329;BME280;51941;52.210;5.158;2024-02-23T12:53:31;98980.41;;;9.14;65.96
65329;BME280;51941;52.210;5.158;2024-02-23T12:56:00;98986.13;;;9.16;66.23
65329;BME280;51941;52.210;5.158;2024-02-23T12:58:27;98984.00;;;9.04;64.64
65329;BME280;51941;52.210;5.158;2024-02-23T13:00:55;98977.06;;;9.06;65.24
65329;BME280;51941;52.210;5.158;2024-02-23T13:03:22;98990.13;;;9.04;65.54
65329;BME280;51941;52.210;5.158;2024-02-23T13:05:49;98990.16;;;9.01;65.84
65329;BME280;51941;52.210;5.158;2024-02-23T13:08:17;98990.63;;;8.96;64.70
65329;BME280;51941;52.210;5.158;2024-02-23T13:10:44;98989.09;;;8.95;64.97